Hovedside
METAR-TAF:

METAR-TAF

Lufthavner :

Pointe-Noire, Kongo

breddegrad: 04-49S, lengdegrad: 011-54E, høyde over havet: 17 m

Gjeldene værobservasjon

Denne rapporten ble laget for 1 time og 15 minutter siden, klokken 21:00 UTC
Vind 4 kt fra Sør
Temperatur 22°C
Luftfuktighet 100%
Trykk 1011 hPa
Sikt: 6000 m
Få skyer i en høyde av 1000 ft

METAR: FCPP 252100Z 19004KT 6000 FEW010 22/22 Q1011 NOSIG

Tid: 23:15 (22:15 UTC)

Varsel

Denne rapporten ble laget for 5 timer og 15 minutter siden, klokken 17:00 UTC
Varsel gyldig fra 25. klokken 18 UTC til 26. klokken 18 UTC
Vind 4 kt fra skiftende retning
Sikt: 7000 m
Få skyer i en høyde av 1000 ft
Brutte skyer i en høyde av 2300 ft
Blir
fra 26. klokken 04 UTC til 26. klokken 06 UTC
Sikt: 4000 m
dis
Blir
fra 26. klokken 07 UTC til 26. klokken 09 UTC
Sikt: 7000 m
Blir
fra 26. klokken 09 UTC til 26. klokken 11 UTC
Vind 10 kt fra Sør

TAF: FCPP 251700Z 2518/2618 VRB04KT 7000 FEW010 BKN023 BECMG 2604/2606 4000 BR BECMG 2607/2609 7000 NSW BECMG 2609/2611 19010KT

Værobservasjoner og værvarsel for over 4000 flyplasser (METAR- og TAF-rapporter).

Tilgjengelige stasjoner er representert av de røde og gule prikkene på kartet.

Hold musepekeren over prikken for å se navnet på stasjonen.

Klikk så for å se værobservasjoner og -varsler.

For å forandre kartet kan du klikke på den grønne knappen med svart kryss for å zoome inn, på den grønne knappen med strek for å zoome ut, eller på de grønne pilene for å se tilstøtende kart.


METAR-TAF: